Time;durP1;ratioP1;P1;durP2;ratioP2;P2;SDS_P1;SDS_P2;PMS_P1;PMS_P2;Temp;Humidity;BMP_temperature;BMP_pressure;BME280_temperature;BME280_humidity;BME280_pressure;Samples;Min_cycle;Max_cycle;Signal;HPM_P1;HPM_P2
2022/04/29 00:00:16;;;;;;;8.15;7.35;;;;;;;13.49;62.96;101847.69;4960190;28;20089;-84
2022/04/29 00:02:41;;;;;;;7.78;6.95;;;;;;;13.45;63.05;101842.66;4976640;28;20056;-85
2022/04/29 00:05:08;;;;;;;8.45;7.20;;;;;;;13.40;63.19;101835.06;5008631;28;20038;-84
2022/04/29 00:07:35;;;;;;;8.38;7.47;;;;;;;13.52;62.82;101848.47;5008465;28;20025;-85
2022/04/29 00:10:00;;;;;;;7.63;6.85;;;;;;;13.47;62.86;101841.72;4991582;28;20420;-84
2022/04/29 00:12:26;;;;;;;7.53;6.82;;;;;;;13.52;63.09;101835.47;5008240;28;20058;-85
2022/04/29 00:14:51;;;;;;;7.68;6.80;;;;;;;13.52;62.97;101814.66;4991771;28;20038;-84
2022/04/29 00:17:17;;;;;;;7.65;6.60;;;;;;;13.54;63.09;101831.88;5007914;28;20068;-85
2022/04/29 00:19:43;;;;;;;7.50;6.80;;;;;;;13.54;63.30;101837.09;4993211;28;20026;-85
2022/04/29 00:22:09;;;;;;;6.93;6.30;;;;;;;13.54;63.31;101828.44;4959922;28;20073;-85
2022/04/29 00:24:34;;;;;;;7.40;6.70;;;;;;;13.42;63.67;101820.25;4991510;28;20363;-84
2022/04/29 00:27:00;;;;;;;7.55;6.72;;;;;;;13.47;63.60;101843.47;4959491;28;20408;-84
2022/04/29 00:29:25;;;;;;;6.35;5.75;;;;;;;13.53;63.32;101844.94;4992079;28;20503;-85
2022/04/29 00:31:51;;;;;;;7.25;6.15;;;;;;;13.51;63.63;101852.81;4991784;28;20558;-85
2022/04/29 00:34:20;;;;;;;8.10;6.38;;;;;;;13.33;63.57;101814.59;4959377;28;20030;-84
2022/04/29 00:36:46;;;;;;;6.82;6.13;;;;;;;13.53;63.82;101844.94;4991539;28;20040;-84
2022/04/29 00:39:11;;;;;;;5.97;5.38;;;;;;;13.18;63.77;101803.06;4991020;28;20030;-84
2022/04/29 00:41:37;;;;;;;6.85;5.93;;;;;;;13.42;63.58;101830.66;4991437;28;20184;-84
2022/04/29 00:44:07;;;;;;;6.00;5.40;;;;;;;13.59;63.43;101845.53;4975337;28;20081;-85
2022/04/29 00:46:34;;;;;;;5.93;5.43;;;;;;;13.64;63.51;101846.19;4991530;28;20057;-84
2022/04/29 00:49:00;;;;;;;5.90;5.30;;;;;;;13.57;63.47;101836.97;4975131;28;20030;-85
2022/04/29 00:51:26;;;;;;;5.55;5.05;;;;;;;13.53;63.73;101839.75;4959116;28;20113;-84
2022/04/29 00:53:51;;;;;;;5.45;4.95;;;;;;;13.62;63.59;101840.22;5007100;28;20030;-84
2022/04/29 00:56:17;;;;;;;5.40;4.90;;;;;;;13.60;63.54;101836.84;4975078;28;20030;-84
2022/04/29 00:58:44;;;;;;;5.55;5.00;;;;;;;13.61;63.81;101840.28;4975023;28;20034;-84
2022/04/29 01:01:09;;;;;;;5.30;4.80;;;;;;;13.51;63.98;101831.19;4958977;28;20488;-84
2022/04/29 01:03:37;;;;;;;4.95;4.45;;;;;;;13.59;64.04;101829.94;4974852;28;20128;-84
2022/04/29 01:06:02;;;;;;;5.20;4.70;;;;;;;13.54;63.89;101831.03;4974677;28;20057;-85
2022/04/29 01:08:28;;;;;;;5.22;4.72;;;;;;;13.43;63.62;101801.13;4974340;28;20061;-85
2022/04/29 01:10:53;;;;;;;5.25;4.75;;;;;;;13.69;63.54;101846.00;5007221;28;20050;-85
2022/04/29 01:13:19;;;;;;;5.82;4.80;;;;;;;13.56;63.61;101816.22;4992001;28;20031;-85
2022/04/29 01:15:45;;;;;;;4.75;4.35;;;;;;;13.73;63.57;101832.78;4974527;28;20496;-85
2022/04/29 01:18:11;;;;;;;6.00;4.90;;;;;;;13.61;63.28;101809.06;4974677;28;20041;-85
2022/04/29 01:20:36;;;;;;;6.25;5.60;;;;;;;13.81;63.56;101837.66;5007278;28;20034;-84
2022/04/29 01:23:06;;;;;;;5.10;4.60;;;;;;;13.83;63.06;101829.78;4990585;28;20606;-85
2022/04/29 01:25:32;;;;;;;5.13;4.68;;;;;;;13.77;63.16;101828.31;4974430;28;20025;-85
2022/04/29 01:27:57;;;;;;;5.88;5.20;;;;;;;13.82;63.17;101839.34;4974335;28;20061;-85
2022/04/29 01:30:23;;;;;;;5.40;4.90;;;;;;;13.85;63.33;101836.63;5007026;28;20403;-85
2022/04/29 01:32:48;;;;;;;5.40;4.55;;;;;;;13.78;63.34;101837.81;4990607;28;20038;-84
2022/04/29 01:35:14;;;;;;;5.03;4.53;;;;;;;13.70;63.32;101832.94;4990579;28;20500;-85
2022/04/29 01:37:40;;;;;;;4.97;4.57;;;;;;;13.70;63.77;101832.09;4974034;28;20029;-85
2022/04/29 01:40:06;;;;;;;4.95;4.53;;;;;;;13.75;63.64;101828.34;5006573;28;20034;-84
2022/04/29 01:42:32;;;;;;;5.60;5.10;;;;;;;13.73;63.39;101825.00;4974363;28;20137;-85
2022/04/29 01:44:57;;;;;;;5.10;4.60;;;;;;;13.71;63.11;101823.38;4974251;28;20492;-84
2022/04/29 01:47:23;;;;;;;5.10;4.60;;;;;;;13.70;63.57;101821.69;4958287;28;20939;-84
2022/04/29 01:49:48;;;;;;;5.32;4.80;;;;;;;13.74;63.30;101828.44;5006456;28;20526;-84
2022/04/29 01:52:14;;;;;;;5.00;4.45;;;;;;;13.73;63.49;101822.38;4973854;28;20031;-84
2022/04/29 01:54:39;;;;;;;4.80;4.40;;;;;;;13.73;63.29;101831.94;4974321;28;20034;-84
2022/04/29 01:57:05;;;;;;;5.05;4.55;;;;;;;13.69;63.70;101825.19;4974202;28;20034;-85
2022/04/29 01:59:31;;;;;;;5.03;4.53;;;;;;;13.59;63.31;101818.69;4974115;28;20026;-85
2022/04/29 02:02:00;;;;;;;5.00;4.50;;;;;;;13.63;63.70;101820.25;4990439;28;20041;-84
2022/04/29 02:04:25;;;;;;;4.80;4.40;;;;;;;13.66;63.59;101825.31;4973877;28;20045;-84
2022/04/29 02:06:51;;;;;;;5.10;4.60;;;;;;;13.58;63.76;101811.81;4973432;28;20026;-85
2022/04/29 02:09:16;;;;;;;5.30;4.40;;;;;;;13.41;64.23;101799.53;5006400;28;20030;-84
2022/04/29 02:12:04;;;;;;;5.38;4.57;;;;;;;13.29;64.62;101793.09;4977163;28;20026;-84
2022/04/29 02:14:30;;;;;;;6.43;5.55;;;;;;;13.36;64.88;101827.44;4996438;28;20026;-84
2022/04/29 02:16:56;;;;;;;5.63;5.13;;;;;;;13.32;64.79;101825.91;4961160;28;20411;-85
2022/04/29 02:19:22;;;;;;;5.60;5.10;;;;;;;13.42;64.54;101830.66;4993024;28;20484;-84
2022/04/29 02:21:48;;;;;;;5.18;4.72;;;;;;;13.32;64.66;101821.53;4977300;28;20052;-85
2022/04/29 02:24:14;;;;;;;5.20;4.70;;;;;;;13.13;64.95;101810.19;4977295;28;20121;-84
2022/04/29 02:26:39;;;;;;;5.60;5.10;;;;;;;13.21;64.76;101831.53;4961085;28;20022;-84
2022/04/29 02:29:05;;;;;;;5.57;5.07;;;;;;;13.13;65.16;101816.22;4993300;28;20084;-84
2022/04/29 02:31:30;;;;;;;5.38;4.88;;;;;;;13.16;65.05;101810.88;4961114;28;20483;-85
2022/04/29 02:33:56;;;;;;;5.32;4.88;;;;;;;13.11;64.92;101796.41;4993260;28;20476;-84
2022/04/29 02:36:23;;;;;;;5.55;5.05;;;;;;;13.21;64.89;101818.53;4993246;28;20029;-84
2022/04/29 02:38:48;;;;;;;5.60;5.10;;;;;;;13.14;65.12;101822.25;4977966;28;20120;-85
2022/04/29 02:41:14;;;;;;;5.65;4.95;;;;;;;13.05;65.00;101823.47;4980717;28;20108;-84
2022/04/29 02:43:40;;;;;;;5.53;5.03;;;;;;;13.09;65.11;101825.06;4980442;28;20041;-84
2022/04/29 02:46:06;;;;;;;5.65;5.15;;;;;;;12.91;65.25;101810.19;4981113;28;20030;-85
2022/04/29 02:48:31;;;;;;;5.72;5.22;;;;;;;12.97;65.28;101814.28;4980530;28;20033;-85
2022/04/29 02:50:57;;;;;;;5.78;5.28;;;;;;;13.09;64.87;101835.44;4980649;28;20037;-86
2022/04/29 02:53:22;;;;;;;5.55;5.05;;;;;;;13.02;64.81;101818.41;4964367;28;20049;-87
2022/04/29 02:55:48;;;;;;;6.20;5.60;;;;;;;12.92;64.84;101820.53;5014583;28;20037;-88
2022/04/29 02:58:13;;;;;;;6.18;5.57;;;;;;;12.98;65.08;101818.56;4964422;28;20037;-88
2022/04/29 03:00:39;;;;;;;5.60;5.10;;;;;;;13.14;65.07;101824.84;4980592;28;20022;-86
2022/04/29 03:03:05;;;;;;;5.80;5.30;;;;;;;13.10;64.75;101828.50;4964265;28;20065;-87
2022/04/29 03:05:31;;;;;;;6.05;5.53;;;;;;;13.12;64.54;101839.66;4980264;28;20400;-88
2022/04/29 03:07:56;;;;;;;5.63;5.13;;;;;;;13.12;64.81;101839.66;4980457;28;20042;-88
2022/04/29 03:10:22;;;;;;;5.63;5.13;;;;;;;13.25;64.00;101856.47;4980118;28;20522;-87
2022/04/29 03:12:47;;;;;;;5.70;5.20;;;;;;;13.17;64.38;101854.19;4980450;28;20033;-88
2022/04/29 03:15:16;;;;;;;6.00;5.50;;;;;;;13.15;64.53;101858.56;4996836;28;20114;-87
2022/04/29 03:20:27;;;;;;;5.95;5.22;;;;;;;13.19;64.07;101862.78;4985179;28;20064;-86
2022/04/29 03:22:52;;;;;;;5.90;5.25;;;;;;;12.87;64.32;101840.63;4964028;28;20030;-87
2022/04/29 03:25:18;;;;;;;5.53;5.03;;;;;;;12.84;64.90;101825.16;4964034;28;20022;-88
2022/04/29 03:27:43;;;;;;;6.03;5.43;;;;;;;12.68;65.04;101850.03;4963892;28;20403;-88
2022/04/29 03:30:09;;;;;;;11.77;5.47;;;;;;;12.70;65.57;101863.81;5013860;28;20026;-87
2022/04/29 03:32:35;;;;;;;5.95;5.45;;;;;;;12.84;64.90;101871.91;4980960;28;20034;-86
2022/04/29 03:35:00;;;;;;;5.93;5.43;;;;;;;12.63;65.18;101872.75;4995778;28;20026;-86
2022/04/29 03:37:26;;;;;;;6.55;5.95;;;;;;;12.49;65.76;101869.81;4995899;28;20409;-85
2022/04/29 03:39:53;;;;;;;8.95;5.82;;;;;;;12.58;65.58;101869.44;4995578;28;20104;-85
2022/04/29 03:42:19;;;;;;;6.22;5.70;;;;;;;12.44;65.65;101869.97;4979157;28;20053;-84
2022/04/29 03:44:44;;;;;;;6.57;5.97;;;;;;;12.57;65.47;101888.53;4979414;28;20022;-85
2022/04/29 03:47:09;;;;;;;6.32;5.72;;;;;;;12.50;65.74;101887.94;4995351;28;20034;-85
2022/04/29 03:49:35;;;;;;;6.47;5.93;;;;;;;12.50;65.66;101881.91;4995261;28;20422;-85
2022/04/29 03:52:00;;;;;;;6.55;5.90;;;;;;;12.43;65.66;101890.81;4979072;28;20180;-85
2022/04/29 03:54:26;;;;;;;6.55;5.88;;;;;;;12.18;65.83;101855.34;4995421;28;20038;-85
2022/04/29 03:56:52;;;;;;;6.45;5.85;;;;;;;12.31;66.05;101879.97;4995570;28;20128;-86
2022/04/29 03:59:18;;;;;;;6.47;5.88;;;;;;;12.30;65.82;101890.41;4995458;28;20026;-84
2022/04/29 04:01:44;;;;;;;6.47;5.88;;;;;;;12.16;66.79;101896.06;4995069;28;20406;-85
2022/04/29 04:04:09;;;;;;;6.35;5.75;;;;;;;12.17;66.49;101889.97;4994119;28;20030;-85
2022/04/29 04:06:49;;;;;;;6.35;5.75;;;;;;;12.17;66.80;101882.19;4995393;28;20039;-85
2022/04/29 04:09:20;;;;;;;6.05;5.45;;;;;;;12.24;66.46;101888.03;4980884;28;20112;-85
2022/04/29 04:11:46;;;;;;;6.07;5.47;;;;;;;12.22;66.36;101889.84;4993230;28;20018;-85
2022/04/29 04:14:11;;;;;;;6.30;5.70;;;;;;;12.11;66.57;101877.25;4994802;28;20037;-84
2022/04/29 04:16:37;;;;;;;5.88;5.38;;;;;;;12.27;66.57;101893.94;4981857;28;20053;-85
2022/04/29 04:19:03;;;;;;;5.65;5.15;;;;;;;12.29;65.97;101894.75;4978315;28;20163;-83
2022/04/29 04:21:28;;;;;;;6.47;5.70;;;;;;;12.27;65.79;101883.56;4986786;28;20503;-92
2022/04/29 04:23:54;;;;;;;5.97;5.38;;;;;;;12.27;66.04;101895.69;4992266;28;20037;-86
2022/04/29 04:26:20;;;;;;;5.95;5.35;;;;;;;12.30;65.38;101895.59;4977689;28;20030;-86
2022/04/29 04:28:45;;;;;;;6.93;6.30;;;;;;;12.41;66.12;101906.44;5011436;28;20156;-94
2022/04/29 04:31:11;;;;;;;9.25;5.63;;;;;;;12.45;65.10;101904.56;4998606;28;20036;-95
2022/04/29 04:33:36;;;;;;;6.05;4.90;;;;;;;12.42;65.52;101904.69;4985158;28;20034;-93
2022/04/29 04:36:04;;;;;;;5.75;5.18;;;;;;;12.38;65.19;101897.91;4978578;28;20030;-83
2022/04/29 04:38:30;;;;;;;10.10;5.90;;;;;;;12.45;65.01;101904.56;4994323;28;20033;-85
2022/04/29 04:40:58;;;;;;;6.50;5.20;;;;;;;12.57;64.91;101919.69;5010113;28;20026;-87
2022/04/29 04:43:24;;;;;;;11.05;5.20;;;;;;;12.49;65.25;101912.19;4994037;28;20037;-85
2022/04/29 04:45:50;;;;;;;6.55;5.00;;;;;;;12.45;65.21;101904.56;4976821;28;20038;-85
2022/04/29 04:48:16;;;;;;;5.32;4.78;;;;;;;12.66;64.43;101929.72;4975076;28;20030;-90
2022/04/29 04:50:41;;;;;;;5.20;4.70;;;;;;;12.68;64.22;101930.50;4974170;28;20027;-86
2022/04/29 04:53:07;;;;;;;5.00;4.50;;;;;;;12.66;64.68;101945.31;4977520;28;20476;-92
2022/04/29 04:55:32;;;;;;;5.13;4.15;;;;;;;12.80;64.63;101947.41;4958682;28;20073;-88
2022/04/29 04:57:58;;;;;;;4.20;3.80;;;;;;;13.77;61.48;101940.16;4948062;28;20044;-86
2022/04/29 05:00:23;;;;;;;4.80;4.30;;;;;;;13.56;61.52;101943.63;4968386;28;20061;-94
2022/04/29 05:02:49;;;;;;;4.60;4.20;;;;;;;13.43;62.30;101944.09;4961769;28;20033;-88
2022/04/29 05:05:14;;;;;;;5.60;5.10;;;;;;;13.34;62.39;101936.69;4984684;28;20559;-87
2022/04/29 05:07:40;;;;;;;4.70;4.30;;;;;;;13.41;62.51;101945.09;4965061;28;20034;-85
2022/04/29 05:10:07;;;;;;;4.50;4.10;;;;;;;13.30;62.67;101937.72;4979007;28;20041;-83
2022/04/29 05:12:37;;;;;;;4.65;4.25;;;;;;;13.38;62.92;101940.03;4972974;28;20991;-93
2022/04/29 05:15:05;;;;;;;4.07;3.67;;;;;;;13.41;62.06;101943.34;4979101;28;20029;-92
2022/04/29 05:17:30;;;;;;;4.50;4.10;;;;;;;13.48;62.12;101944.78;4979887;28;20522;-83
2022/04/29 05:19:55;;;;;;;4.00;3.60;;;;;;;13.45;62.18;101921.50;4985448;28;20033;-85
2022/04/29 05:22:21;;;;;;;3.35;3.05;;;;;;;13.49;61.82;101923.06;4969667;28;20076;-88
2022/04/29 05:24:48;;;;;;;5.07;3.60;;;;;;;13.54;62.15;101922.03;4984558;28;20484;-87
2022/04/29 05:27:13;;;;;;;3.20;2.88;;;;;;;13.78;61.21;101923.63;4950796;28;20037;-86
2022/04/29 05:29:39;;;;;;;2.63;2.42;;;;;;;14.41;59.11;101941.75;4965181;28;20080;-83
2022/04/29 05:32:06;;;;;;;2.65;2.28;;;;;;;14.13;58.69;101923.88;4985001;28;21419;-85
2022/04/29 05:34:33;;;;;;;2.78;2.40;;;;;;;14.15;59.93;101942.88;4967068;28;20034;-87
2022/04/29 05:36:59;;;;;;;2.35;1.95;;;;;;;14.05;59.75;101948.47;4988324;28;20026;-90
2022/04/29 05:42:15;;;;;;;1.63;1.30;;;;;;;14.59;57.16;101965.25;4988570;28;20041;-85
2022/04/29 05:44:41;;;;;;;2.38;1.70;;;;;;;14.40;58.16;101951.31;4989546;28;20034;-85
2022/04/29 05:47:07;;;;;;;1.83;1.30;;;;;;;14.37;57.85;101948.88;4980070;28;20072;-85
2022/04/29 05:49:32;;;;;;;1.50;1.13;;;;;;;14.25;57.87;101932.00;4975383;28;20036;-88
2022/04/29 05:52:04;;;;;;;2.05;1.38;;;;;;;14.23;58.10;101931.22;4973019;28;20412;-85
2022/04/29 05:54:31;;;;;;;2.70;1.90;;;;;;;14.54;58.18;101941.16;4962924;28;20064;-86
2022/04/29 05:56:57;;;;;;;3.25;1.50;;;;;;;15.24;57.58;101967.50;4997966;28;20046;-86
2022/04/29 05:59:23;;;;;;;4.05;2.80;;;;;;;15.55;56.59;101941.69;5006211;28;20058;-87
2022/04/29 06:01:49;;;;;;;3.63;2.53;;;;;;;16.00;55.48;101938.56;4982648;28;20164;-91
2022/04/29 06:04:16;;;;;;;2.28;1.48;;;;;;;15.90;53.69;101945.16;4980235;28;20038;-90
2022/04/29 06:06:42;;;;;;;1.95;1.13;;;;;;;15.65;55.05;101953.38;4984444;28;20034;-90
2022/04/29 06:09:07;;;;;;;2.00;1.65;;;;;;;15.52;55.26;101952.25;4972486;28;20088;-84
2022/04/29 06:11:32;;;;;;;1.50;1.10;;;;;;;15.33;55.42;101959.25;4960680;28;20046;-83
2022/04/29 06:13:58;;;;;;;1.52;1.10;;;;;;;15.29;56.61;101953.34;4986311;28;20069;-84
2022/04/29 06:16:24;;;;;;;1.50;1.00;;;;;;;15.16;55.71;101939.22;4987973;28;20155;-83
2022/04/29 06:18:49;;;;;;;2.10;1.48;;;;;;;15.28;56.08;101956.03;4987040;28;20048;-86
2022/04/29 06:21:16;;;;;;;1.45;0.98;;;;;;;15.30;55.59;101948.97;4996986;28;20388;-84
2022/04/29 06:23:42;;;;;;;2.88;1.30;;;;;;;15.40;55.69;101952.84;4993243;28;20049;-84
2022/04/29 06:26:09;;;;;;;1.48;1.10;;;;;;;15.41;55.31;101950.16;4987771;28;20551;-87
2022/04/29 06:28:36;;;;;;;4.60;3.65;;;;;;;15.37;55.83;101943.41;5001290;28;20063;-87
2022/04/29 06:31:02;;;;;;;1.52;0.90;;;;;;;15.33;55.93;101935.78;4985537;28;20022;-95
2022/04/29 06:33:31;;;;;;;2.08;0.80;;;;;;;15.49;55.56;101947.19;4969045;28;20056;-92
2022/04/29 06:35:57;;;;;;;0.57;0.57;;;;;;;15.37;55.07;101912.13;4973955;28;20032;-88
2022/04/29 06:38:23;;;;;;;2.15;0.88;;;;;;;15.57;54.39;101942.44;5000768;28;20041;-90
2022/04/29 06:40:48;;;;;;;6.00;5.53;;;;;;;15.77;54.18;101952.78;5017857;28;20087;-82
2022/04/29 06:43:14;;;;;;;3.15;1.02;;;;;;;15.73;54.02;101953.84;5029740;28;20041;-83
2022/04/29 06:45:39;;;;;;;1.00;0.80;;;;;;;15.67;53.84;101927.22;4999956;28;20029;-83
2022/04/29 06:48:05;;;;;;;1.92;1.58;;;;;;;15.83;54.40;101962.06;5028582;28;20036;-83
2022/04/29 06:50:31;;;;;;;1.95;0.90;;;;;;;15.68;53.93;101958.44;5008132;28;20626;-87
2022/04/29 06:52:57;;;;;;;1.00;0.80;;;;;;;15.69;53.62;101949.69;5005950;28;20025;-85
2022/04/29 06:55:23;;;;;;;1.30;0.90;;;;;;;15.82;54.64;101952.53;4953408;28;20123;-84
2022/04/29 06:57:49;;;;;;;1.70;0.90;;;;;;;15.93;54.12;101959.84;4979963;28;20041;-82
2022/04/29 07:00:14;;;;;;;1.75;1.00;;;;;;;15.78;54.24;101958.84;4988289;28;20026;-84
2022/04/29 07:02:40;;;;;;;1.80;1.00;;;;;;;15.82;54.22;101933.41;4996913;28;20557;-82
2022/04/29 07:05:06;;;;;;;1.70;0.90;;;;;;;16.06;54.29;101945.25;4976796;28;20021;-84
2022/04/29 07:07:32;;;;;;;1.83;0.95;;;;;;;16.21;53.70;101956.66;5003634;28;20061;-86
2022/04/29 07:09:57;;;;;;;2.13;1.00;;;;;;;16.35;52.68;101949.81;4965908;28;20099;-86
2022/04/29 07:12:23;;;;;;;1.50;0.98;;;;;;;16.48;52.45;101944.78;4985221;28;20029;-92
2022/04/29 07:14:51;;;;;;;1.80;1.40;;;;;;;16.48;51.49;101923.88;5000011;28;20065;-82
2022/04/29 07:17:18;;;;;;;3.08;2.63;;;;;;;16.72;51.87;101949.69;4978497;28;20553;-90
2022/04/29 07:19:43;;;;;;;2.05;1.50;;;;;;;16.72;50.70;101937.47;4993967;28;20068;-87
2022/04/29 07:22:09;;;;;;;1.90;1.60;;;;;;;16.72;50.10;101941.84;5001781;28;20038;-87
2022/04/29 07:24:34;;;;;;;1.40;0.90;;;;;;;16.89;51.17;101955.66;4978032;28;20526;-83
2022/04/29 07:27:00;;;;;;;1.00;0.70;;;;;;;16.82;50.06;101938.66;5005034;28;20136;-84
2022/04/29 07:29:26;;;;;;;1.40;0.88;;;;;;;16.80;51.36;101919.56;4986081;28;20045;-84
2022/04/29 07:31:52;;;;;;;1.65;0.90;;;;;;;17.11;51.15;101959.75;4969356;28;20427;-84
2022/04/29 07:34:17;;;;;;;2.45;1.00;;;;;;;17.28;49.74;101949.16;4950330;28;20120;-85
2022/04/29 07:42:11;;;;;;;1.95;0.82;;;;;;;17.62;49.34;101963.81;4982838;28;20085;-87
2022/04/29 07:44:37;;;;;;;3.20;1.10;;;;;;;17.82;48.51;101959.22;4975211;28;20042;-91
2022/04/29 07:47:03;;;;;;;1.60;1.10;;;;;;;17.86;48.71;101952.88;4985767;28;20128;-82
2022/04/29 07:49:28;;;;;;;2.25;1.15;;;;;;;17.45;48.62;101954.28;4986002;28;20018;-84
2022/04/29 07:51:54;;;;;;;1.50;1.20;;;;;;;17.56;48.20;101956.28;4972862;28;20057;-83
2022/04/29 07:54:19;;;;;;;1.92;0.70;;;;;;;17.69;47.75;101943.34;4958727;28;20528;-84
2022/04/29 07:56:45;;;;;;;1.42;0.80;;;;;;;17.89;48.27;101937.81;4957276;28;20038;-84
2022/04/29 07:59:13;;;;;;;1.38;0.77;;;;;;;18.08;47.30;101941.97;4985871;28;20038;-94
2022/04/29 08:01:44;;;;;;;2.03;0.80;;;;;;;18.04;47.32;101946.56;4959921;28;20050;-95
2022/04/29 08:04:12;;;;;;;1.25;0.90;;;;;;;17.91;47.02;101951.69;4988849;28;20116;-89
2022/04/29 08:06:39;;;;;;;1.15;0.98;;;;;;;17.64;47.79;101942.78;4963038;28;21708;-93
2022/04/29 08:09:05;;;;;;;1.10;0.90;;;;;;;17.95;47.75;101942.69;4972366;28;20022;-85
2022/04/29 08:11:31;;;;;;;0.95;0.68;;;;;;;17.70;46.25;101909.28;4956724;28;20148;-84
2022/04/29 08:13:57;;;;;;;1.73;0.80;;;;;;;17.81;46.56;101945.31;4960366;28;20084;-81
2022/04/29 08:16:22;;;;;;;1.50;1.20;;;;;;;17.63;47.04;101920.16;4973608;28;20030;-84
2022/04/29 08:18:48;;;;;;;0.90;0.77;;;;;;;17.76;48.25;101936.84;4958429;28;20156;-87
2022/04/29 08:21:14;;;;;;;3.65;2.10;;;;;;;17.35;48.72;101915.66;4972352;28;20554;-83
2022/04/29 08:23:39;;;;;;;1.95;0.98;;;;;;;17.88;48.95;101951.84;4983311;28;20512;-81
2022/04/29 08:26:04;;;;;;;1.88;1.00;;;;;;;18.05;48.53;101927.28;4966388;28;20061;-82
2022/04/29 08:28:30;;;;;;;0.70;0.70;;;;;;;18.38;47.10;101939.28;4962014;28;20064;-85
2022/04/29 08:30:56;;;;;;;2.03;1.27;;;;;;;18.26;47.08;101935.63;4960866;28;20026;-86
2022/04/29 08:33:21;;;;;;;2.67;1.17;;;;;;;18.18;48.05;101938.72;4940010;28;20145;-89
2022/04/29 08:35:47;;;;;;;0.95;0.80;;;;;;;18.08;47.48;101932.34;4972984;28;20778;-85
2022/04/29 08:38:12;;;;;;;1.00;0.80;;;;;;;18.28;48.90;101926.75;4968658;28;20037;-87
2022/04/29 08:40:42;;;;;;;1.77;1.02;;;;;;;18.12;47.96;101922.53;4961428;28;20045;-87
2022/04/29 08:43:08;;;;;;;2.03;1.73;;;;;;;18.17;47.99;101946.66;4966954;28;20505;-90
2022/04/29 08:45:36;;;;;;;1.73;0.75;;;;;;;17.99;48.37;101943.34;4966271;28;20471;-86
2022/04/29 08:48:01;;;;;;;1.85;1.20;;;;;;;18.11;48.36;101945.25;4954458;28;20827;-80
2022/04/29 08:50:27;;;;;;;1.38;1.10;;;;;;;18.33;48.41;101931.72;4989072;28;20050;-84
2022/04/29 08:52:52;;;;;;;1.58;0.90;;;;;;;18.45;47.44;101909.16;4965421;28;20030;-85
2022/04/29 09:00:47;;;;;;;2.25;1.00;;;;;;;19.25;44.92;101925.97;4953774;28;20126;-93
2022/04/29 09:03:22;;;;;;;1.33;0.75;;;;;;;19.45;44.00;101912.38;4967243;28;20030;-89
2022/04/29 09:05:50;;;;;;;2.05;0.80;;;;;;;19.70;43.66;101922.97;4940597;28;20060;-84
2022/04/29 09:08:17;;;;;;;1.90;0.80;;;;;;;19.77;43.17;101911.13;4973532;28;20033;-89
2022/04/29 09:10:56;;;;;;;1.60;0.80;;;;;;;19.76;44.11;101917.34;4955760;28;20101;-96
2022/04/29 09:13:24;;;;;;;1.40;1.10;;;;;;;20.03;43.13;101911.13;4977402;28;20130;-92
2022/04/29 09:15:58;;;;;;;0.80;0.70;;;;;;;19.88;42.69;101904.31;4970671;28;20034;-85
2022/04/29 09:18:46;;;;;;;3.20;0.85;;;;;;;19.61;42.70;101915.72;4962217;28;20473;-81
2022/04/29 09:21:12;;;;;;;1.00;0.70;;;;;;;19.53;43.21;101914.50;4956506;28;20034;-88
2022/04/29 09:23:42;;;;;;;1.92;1.00;;;;;;;19.65;43.05;101900.59;4985610;28;20085;-84
2022/04/29 09:26:18;;;;;;;3.70;0.90;;;;;;;19.64;44.47;101891.88;4971360;28;20480;-83
2022/04/29 09:28:45;;;;;;;1.42;0.80;;;;;;;19.89;43.51;101892.84;4953642;28;20027;-82
2022/04/29 09:31:11;;;;;;;1.40;0.70;;;;;;;20.12;43.15;101905.25;4951232;28;20126;-82
2022/04/29 09:33:37;;;;;;;0.80;0.70;;;;;;;20.14;41.12;101905.13;4930201;28;20043;-80
2022/04/29 09:36:03;;;;;;;1.65;0.75;;;;;;;20.10;41.88;101899.25;4946950;28;20053;-85
2022/04/29 09:41:24;;;;;;;0.85;0.70;;;;;;;19.68;42.12;101898.63;4940123;28;20044;-84
2022/04/29 09:43:49;;;;;;;0.77;0.60;;;;;;;19.44;42.62;101885.28;4970387;28;20049;-93
2022/04/29 09:46:20;;;;;;;1.20;0.80;;;;;;;19.51;44.50;101895.41;4970768;28;20026;-83
2022/04/29 09:49:06;;;;;;;3.72;3.42;;;;;;;19.53;42.56;101904.00;4973976;28;20049;-86
2022/04/29 09:51:48;;;;;;;2.08;0.80;;;;;;;19.52;42.61;101897.06;4986409;28;20034;-83
2022/04/29 09:54:21;;;;;;;1.00;0.70;;;;;;;19.47;44.02;101889.53;4953255;28;20043;-84
2022/04/29 09:57:10;;;;;;;0.98;0.70;;;;;;;19.57;43.32;101888.00;4967083;28;20460;-86
2022/04/29 09:59:38;;;;;;;1.58;0.80;;;;;;;19.55;41.85;101900.34;4974039;28;20026;-88
2022/04/29 10:02:04;;;;;;;0.75;0.60;;;;;;;19.74;42.12;101895.56;4936120;28;20038;-84
2022/04/29 10:04:31;;;;;;;1.00;0.60;;;;;;;20.11;40.58;101897.47;4986350;28;20918;-84
2022/04/29 10:06:57;;;;;;;0.80;0.60;;;;;;;20.42;40.24;101881.25;4974480;28;20030;-85
2022/04/29 10:09:22;;;;;;;0.82;0.70;;;;;;;20.46;39.69;101881.91;4959332;28;20405;-88
2022/04/29 10:11:48;;;;;;;0.73;0.65;;;;;;;20.38;40.24;101889.47;4959899;28;20455;-85
2022/04/29 10:14:15;;;;;;;1.48;0.60;;;;;;;20.12;41.26;101880.75;4957868;28;20038;-83
2022/04/29 10:16:40;;;;;;;0.65;0.60;;;;;;;20.01;40.88;101884.13;4974879;28;20084;-88
2022/04/29 10:21:54;;;;;;;1.88;0.85;;;;;;;19.73;41.92;101891.25;4982135;28;20057;-86
2022/04/29 10:24:24;;;;;;;0.80;0.60;;;;;;;19.74;41.95;101895.56;4957912;28;20027;-87
2022/04/29 10:26:49;;;;;;;1.15;0.90;;;;;;;19.67;41.53;101883.81;4969610;28;20034;-84
2022/04/29 10:29:15;;;;;;;2.70;0.90;;;;;;;19.60;41.89;101886.94;4960691;28;20514;-86
2022/04/29 10:31:41;;;;;;;0.95;0.70;;;;;;;19.59;41.57;101882.66;4954255;28;20031;-86
2022/04/29 10:34:27;;;;;;;0.90;0.60;;;;;;;19.53;40.83;101886.47;4968143;28;20056;-85
2022/04/29 10:36:52;;;;;;;2.17;0.70;;;;;;;19.52;40.68;101887.41;4989534;28;20037;-83
2022/04/29 10:39:20;;;;;;;0.93;0.70;;;;;;;19.61;42.39;101881.59;4990257;28;20041;-85
2022/04/29 10:41:59;;;;;;;1.70;0.90;;;;;;;19.87;43.92;101884.25;4965840;28;20026;-85
2022/04/29 10:44:24;;;;;;;1.45;0.90;;;;;;;20.00;42.33;101887.72;4981332;28;20038;-84
2022/04/29 10:46:50;;;;;;;0.93;0.70;;;;;;;20.05;40.93;101896.94;4983432;28;20041;-84
2022/04/29 10:49:18;;;;;;;4.28;3.75;;;;;;;19.91;41.31;101893.59;4984905;28;20030;-91
2022/04/29 10:51:49;;;;;;;1.70;0.80;;;;;;;19.73;41.41;101890.41;4999448;28;20029;-92
2022/04/29 10:54:16;;;;;;;2.13;0.60;;;;;;;19.46;41.79;101879.94;4991629;28;20017;-92
2022/04/29 10:56:42;;;;;;;3.00;2.80;;;;;;;19.36;42.04;101878.88;5002608;28;20036;-91
2022/04/29 10:59:14;;;;;;;1.10;0.60;;;;;;;19.30;41.93;101884.53;4995570;28;20153;-82
2022/04/29 11:01:40;;;;;;;;;;;;;;;19.35;42.27;101890.31;4982896;28;20026;-85
2022/04/29 11:04:15;;;;;;;0.90;0.60;;;;;;;19.40;42.55;101888.25;5008219;28;19917;-84
2022/04/29 11:06:45;;;;;;;1.83;0.60;;;;;;;19.44;41.81;101879.22;5010186;28;20034;-84
2022/04/29 11:09:35;;;;;;;0.70;0.60;;;;;;;19.53;41.46;101883.84;4992191;28;20032;-87
2022/04/29 11:12:01;;;;;;;1.60;0.75;;;;;;;19.54;43.47;101864.53;5005945;28;20030;-90
2022/04/29 11:14:27;;;;;;;0.95;0.70;;;;;;;19.49;41.63;101853.50;4969347;28;20037;-88
2022/04/29 11:16:53;;;;;;;1.00;0.70;;;;;;;19.61;41.54;101883.38;4980307;28;20613;-89
2022/04/29 11:19:20;;;;;;;1.75;0.60;;;;;;;19.61;41.54;101876.34;4995047;28;20030;-96
2022/04/29 11:24:44;;;;;;;0.75;0.60;;;;;;;19.58;41.23;101880.97;4999713;28;20037;-90
2022/04/29 11:27:09;;;;;;;0.73;0.60;;;;;;;19.57;41.54;101879.28;4980374;28;20080;-85
2022/04/29 11:29:45;;;;;;;0.70;0.60;;;;;;;19.49;41.86;101866.63;4973791;28;20038;-91
2022/04/29 11:32:11;;;;;;;1.23;0.88;;;;;;;19.61;41.90;101873.72;4953489;28;20061;-92
2022/04/29 11:34:53;;;;;;;2.38;1.75;;;;;;;19.71;42.39;101879.19;4962656;28;20093;-87
2022/04/29 11:37:23;;;;;;;2.25;2.05;;;;;;;19.83;42.85;101872.25;4963509;28;20062;-86
2022/04/29 11:39:49;;;;;;;1.77;0.90;;;;;;;19.77;42.85;101879.63;4965789;28;20027;-90
2022/04/29 11:42:17;;;;;;;1.90;0.95;;;;;;;20.02;42.83;101870.88;4969910;28;20031;-92
2022/04/29 11:44:43;;;;;;;2.88;1.25;;;;;;;20.09;44.12;101870.47;4974578;28;20455;-87
2022/04/29 11:47:08;;;;;;;1.42;0.90;;;;;;;20.08;42.23;101847.78;4989802;28;20113;-86